createdAt,value
2023-04-14T00:03:19.686Z,14.05
2023-04-14T00:08:22.426Z,14.18
2023-04-14T00:13:25.354Z,14.21
2023-04-14T00:18:28.156Z,14.37
2023-04-14T00:23:30.664Z,14.43
2023-04-14T00:28:33.232Z,14.34
2023-04-14T00:33:35.964Z,14.50
2023-04-14T00:38:38.474Z,14.45
2023-04-14T00:43:41.297Z,14.19
2023-04-14T00:48:44.126Z,14.12
2023-04-14T00:53:46.670Z,14.11
2023-04-14T00:58:52.064Z,14.33
2023-04-14T01:03:55.890Z,14.45
2023-04-14T01:08:59.635Z,14.43
2023-04-14T01:14:29.095Z,14.27
2023-04-14T01:19:47.496Z,14.15
2023-04-14T01:25:08.931Z,14.12
2023-04-14T01:30:43.508Z,14.20
2023-04-14T01:35:51.463Z,14.28
2023-04-14T01:40:58.032Z,14.18
2023-04-14T01:46:09.751Z,13.82
2023-04-14T01:51:16.952Z,13.66
2023-04-14T01:56:21.799Z,13.62
2023-04-14T02:01:27.605Z,14.18
2023-04-14T02:06:32.061Z,14.59
2023-04-14T02:11:35.710Z,14.85
2023-04-14T02:16:39.494Z,14.21
2023-04-14T02:21:42.724Z,12.13
2023-04-14T02:26:58.578Z,10.75
2023-04-14T02:32:05.548Z,10.65
2023-04-14T02:37:18.355Z,11.83
2023-04-14T02:42:25.736Z,12.23
2023-04-14T02:47:50.142Z,12.42
2023-04-14T02:52:54.481Z,12.70
2023-04-14T02:57:58.341Z,12.78
2023-04-14T03:03:02.267Z,12.89
2023-04-14T03:08:05.733Z,12.95
2023-04-14T03:13:09.642Z,12.93
2023-04-14T03:18:14.365Z,13.10
2023-04-14T03:23:20.259Z,13.26
2023-04-14T03:28:28.433Z,13.19
2023-04-14T03:33:32.319Z,13.16
2023-04-14T03:38:36.890Z,13.14
2023-04-14T03:43:41.056Z,13.09
2023-04-14T03:48:46.606Z,12.94
2023-04-14T03:53:49.911Z,12.85
2023-04-14T03:58:55.532Z,12.90
2023-04-14T04:04:02.065Z,12.90
2023-04-14T04:09:05.806Z,12.94
2023-04-14T04:14:10.745Z,12.92
2023-04-14T04:19:15.363Z,12.96
2023-04-14T04:24:22.244Z,13.01
2023-04-14T04:29:26.961Z,13.00
2023-04-14T04:34:32.219Z,13.03
2023-04-14T04:39:34.757Z,12.97
2023-04-14T04:44:37.340Z,13.04
2023-04-14T04:49:39.960Z,13.28
2023-04-14T04:54:42.583Z,13.33
2023-04-14T04:59:45.234Z,13.26
2023-04-14T05:04:48.933Z,13.25
2023-04-14T05:09:53.724Z,13.67
2023-04-14T05:14:56.633Z,14.00
2023-04-14T05:20:01.942Z,14.28
2023-04-14T05:25:06.280Z,14.38
2023-04-14T05:30:09.473Z,14.30
2023-04-14T05:35:12.006Z,14.28
2023-04-14T05:40:14.502Z,14.26
2023-04-14T05:45:17.038Z,14.07
2023-04-14T05:50:19.594Z,13.95
2023-04-14T05:55:22.121Z,13.78
2023-04-14T06:00:25.211Z,13.87
2023-04-14T06:05:27.905Z,13.82
2023-04-14T06:10:31.998Z,13.51
2023-04-14T06:15:34.765Z,13.60
2023-04-14T06:20:37.258Z,14.03
2023-04-14T06:25:40.965Z,14.26
2023-04-14T06:30:43.481Z,14.49
2023-04-14T06:35:46.108Z,14.51
2023-04-14T06:40:49.145Z,14.52
2023-04-14T06:45:52.454Z,14.47
2023-04-14T06:50:56.250Z,14.42
2023-04-14T06:56:02.204Z,14.33
2023-04-14T07:01:05.138Z,14.78
2023-04-14T07:06:12.671Z,15.07
2023-04-14T07:11:15.195Z,15.65
2023-04-14T07:16:18.567Z,15.98
2023-04-14T07:21:21.227Z,16.06
2023-04-14T07:26:23.768Z,16.13
2023-04-14T07:31:26.550Z,16.00
2023-04-14T07:36:30.862Z,16.03
2023-04-14T07:41:33.567Z,15.90
2023-04-14T07:46:36.386Z,15.83
2023-04-14T07:51:39.003Z,15.85
2023-04-14T07:56:41.708Z,15.75
2023-04-14T08:01:44.352Z,15.77
2023-04-14T08:06:46.963Z,15.83
2023-04-14T08:11:49.478Z,15.95
2023-04-14T08:16:52.317Z,15.94
2023-04-14T08:21:55.022Z,15.72
2023-04-14T08:26:58.063Z,15.72
2023-04-14T08:32:01.088Z,15.64
2023-04-14T08:37:03.731Z,15.30
2023-04-14T08:42:07.961Z,15.42
2023-04-14T08:47:10.938Z,15.60
2023-04-14T08:52:16.286Z,15.46
2023-04-14T08:57:20.161Z,15.29
2023-04-14T09:02:23.429Z,15.24
2023-04-14T09:07:28.234Z,15.11
2023-04-14T09:12:32.523Z,15.31
2023-04-14T09:17:36.527Z,15.22
2023-04-14T09:22:39.251Z,14.88
2023-04-14T09:27:42.542Z,15.16
2023-04-14T09:32:45.437Z,15.38
2023-04-14T09:37:50.000Z,15.59
2023-04-14T09:42:55.222Z,15.68
2023-04-14T09:48:14.933Z,15.63
2023-04-14T09:53:25.086Z,16.10
2023-04-14T09:58:34.156Z,15.85
2023-04-14T10:03:42.120Z,14.57
2023-04-14T10:08:46.880Z,15.33
2023-04-14T10:13:51.053Z,16.56
2023-04-14T10:18:54.829Z,16.86
2023-04-14T10:23:58.337Z,16.09
2023-04-14T10:29:02.836Z,16.84
2023-04-14T10:34:13.113Z,17.63
2023-04-14T10:39:22.793Z,17.75
2023-04-14T10:44:28.421Z,16.72
2023-04-14T10:49:33.802Z,16.70
2023-04-14T10:54:52.290Z,17.33
2023-04-14T10:59:59.407Z,16.18
2023-04-14T11:05:06.759Z,16.65
2023-04-14T11:10:25.568Z,17.35
2023-04-14T11:15:51.358Z,16.42
2023-04-14T11:20:54.508Z,16.28
2023-04-14T11:25:59.830Z,17.61
2023-04-14T11:31:04.600Z,17.31
2023-04-14T11:36:09.380Z,16.66
2023-04-14T11:41:15.253Z,16.58
2023-04-14T11:46:23.787Z,16.65
2023-04-14T11:51:33.529Z,16.73
2023-04-14T11:56:37.256Z,16.69
2023-04-14T12:01:39.821Z,16.44
2023-04-14T12:06:42.405Z,16.21
2023-04-14T12:11:53.855Z,16.94
2023-04-14T12:16:56.590Z,17.85
2023-04-14T12:21:59.429Z,16.97
2023-04-14T12:27:04.709Z,16.57
2023-04-14T12:32:11.478Z,16.48
2023-04-14T12:37:13.962Z,16.23
2023-04-14T12:42:16.841Z,16.09
2023-04-14T12:47:31.201Z,16.16
2023-04-14T12:52:39.418Z,16.19
2023-04-14T12:57:41.959Z,16.19
2023-04-14T13:02:45.639Z,16.21
2023-04-14T13:07:49.482Z,16.15
2023-04-14T13:12:52.481Z,16.04
2023-04-14T13:17:55.040Z,15.73
2023-04-14T13:22:57.678Z,15.51
2023-04-14T13:28:00.270Z,15.35
2023-04-14T13:33:02.831Z,15.33
2023-04-14T13:38:05.612Z,15.42
2023-04-14T13:43:08.732Z,15.63
2023-04-14T13:48:11.288Z,15.81
2023-04-14T13:53:14.295Z,15.74
2023-04-14T13:58:16.990Z,15.65
2023-04-14T14:03:19.846Z,15.55
2023-04-14T14:08:22.556Z,15.45
2023-04-14T14:13:25.869Z,15.56
2023-04-14T14:18:29.147Z,15.97
2023-04-14T14:23:31.750Z,16.16
2023-04-14T14:28:34.291Z,15.92
2023-04-14T14:33:37.908Z,15.65
2023-04-14T14:38:40.529Z,15.47
2023-04-14T14:44:14.748Z,15.40
2023-04-14T14:49:26.223Z,15.33
2023-04-14T14:54:28.792Z,15.19
2023-04-14T14:59:33.108Z,15.09
2023-04-14T15:04:36.539Z,15.04
2023-04-14T15:09:39.391Z,15.03
2023-04-14T15:14:42.307Z,15.08
2023-04-14T15:19:45.394Z,15.15
2023-04-14T15:24:47.962Z,15.17
2023-04-14T15:29:51.452Z,15.09
2023-04-14T15:34:54.904Z,14.97
2023-04-14T15:39:57.693Z,14.87
2023-04-14T15:45:00.590Z,14.79
2023-04-14T15:50:08.933Z,14.77
2023-04-14T15:55:12.557Z,14.78
2023-04-14T16:00:16.101Z,14.77
2023-04-14T16:05:18.804Z,14.78
2023-04-14T16:10:22.478Z,14.78
2023-04-14T16:15:25.044Z,14.74
2023-04-14T16:20:27.878Z,14.79
2023-04-14T16:25:30.659Z,14.84
2023-04-14T16:30:33.272Z,14.80
2023-04-14T16:35:35.860Z,14.69
2023-04-14T16:40:39.084Z,14.52
2023-04-14T16:45:41.974Z,14.28
2023-04-14T16:50:47.047Z,14.13
2023-04-14T16:55:49.593Z,15.15
2023-04-14T17:00:52.218Z,15.07
2023-04-14T17:05:56.299Z,14.38
2023-04-14T17:10:59.054Z,14.00
2023-04-14T17:16:08.662Z,14.01
2023-04-14T17:21:11.904Z,15.10
2023-04-14T17:26:16.111Z,14.45
2023-04-14T17:31:18.813Z,13.85
2023-04-14T17:36:21.648Z,14.41
2023-04-14T17:41:24.916Z,14.62
2023-04-14T17:46:33.490Z,13.70
2023-04-14T17:51:36.149Z,14.06
2023-04-14T17:56:39.151Z,14.36
2023-04-14T18:01:42.244Z,13.41
2023-04-14T18:06:45.113Z,13.81
2023-04-14T18:11:48.078Z,14.47
2023-04-14T18:16:50.889Z,13.86
2023-04-14T18:21:54.202Z,13.12
2023-04-14T18:26:57.126Z,14.09
2023-04-14T18:31:59.933Z,13.66
2023-04-14T18:37:03.938Z,13.12
2023-04-14T18:42:06.524Z,14.20
2023-04-14T18:47:09.557Z,13.69
2023-04-14T18:52:12.121Z,13.69
2023-04-14T18:57:14.742Z,14.45
2023-04-14T19:02:17.635Z,13.54
2023-04-14T19:07:21.020Z,14.02
2023-04-14T19:12:28.511Z,14.28
2023-04-14T19:17:34.098Z,13.33
2023-04-14T19:22:36.771Z,14.08
2023-04-14T19:27:42.399Z,14.08
2023-04-14T19:32:46.594Z,13.20
2023-04-14T19:37:50.059Z,13.86
2023-04-14T19:42:55.128Z,14.27
2023-04-14T19:47:58.060Z,13.32
2023-04-14T19:53:00.724Z,13.39
2023-04-14T19:58:03.555Z,14.22
2023-04-14T20:03:06.252Z,13.24
2023-04-14T20:08:08.989Z,13.06
2023-04-14T20:13:11.509Z,13.91
2023-04-14T20:18:14.675Z,12.99
2023-04-14T20:23:17.345Z,12.85
2023-04-14T20:28:21.206Z,13.88
2023-04-14T20:33:24.385Z,13.12
2023-04-14T20:38:27.835Z,12.98
2023-04-14T20:43:34.144Z,14.03
2023-04-14T20:48:36.813Z,13.08
2023-04-14T20:53:39.650Z,12.66
2023-04-14T20:58:42.443Z,13.78
2023-04-14T21:03:45.638Z,13.13
2023-04-14T21:08:48.221Z,12.27
2023-04-14T21:15:41.520Z,13.12
2023-04-14T21:19:14.136Z,14.27
2023-04-14T21:24:16.775Z,13.17
2023-04-14T21:29:19.553Z,12.34
2023-04-14T21:34:22.365Z,13.22
2023-04-14T21:39:28.396Z,13.69
2023-04-14T21:44:31.220Z,12.67
2023-04-14T21:49:33.762Z,13.06
2023-04-14T21:54:38.867Z,14.11
2023-04-14T21:59:41.653Z,13.27
2023-04-14T22:04:44.311Z,12.69
2023-04-14T22:09:48.302Z,13.78
2023-04-14T22:14:51.539Z,13.46
2023-04-14T22:19:54.145Z,12.61
2023-04-14T22:24:57.067Z,13.58
2023-04-14T22:30:00.072Z,13.64
2023-04-14T22:35:03.665Z,12.75
2023-04-14T22:40:07.390Z,13.71
2023-04-14T22:45:10.111Z,13.83
2023-04-14T22:50:12.718Z,12.75
2023-04-14T22:55:15.565Z,13.39
2023-04-14T23:00:22.011Z,13.90
2023-04-14T23:05:28.008Z,12.76
2023-04-14T23:10:31.250Z,12.92
2023-04-14T23:15:33.933Z,14.31
2023-04-14T23:20:37.147Z,13.60
2023-04-14T23:25:40.088Z,12.57
2023-04-14T23:30:43.000Z,13.43
2023-04-14T23:35:46.418Z,13.97
2023-04-14T23:40:49.006Z,12.78
2023-04-14T23:45:52.457Z,12.90
2023-04-14T23:51:00.652Z,14.07
2023-04-14T23:56:17.897Z,13.87
